createdAt,value
2023-03-27T00:01:18.094Z,79.68
2023-03-27T00:03:52.816Z,79.86
2023-03-27T00:06:19.864Z,79.92
2023-03-27T00:08:47.985Z,79.94
2023-03-27T00:11:16.256Z,80.04
2023-03-27T00:13:50.317Z,80.23
2023-03-27T00:16:21.880Z,80.29
2023-03-27T00:18:48.920Z,80.46
2023-03-27T00:21:18.985Z,80.48
2023-03-27T00:23:48.887Z,80.61
2023-03-27T00:26:15.513Z,80.86
2023-03-27T00:28:46.954Z,80.85
2023-03-27T00:31:14.686Z,80.78
2023-03-27T00:33:42.095Z,80.90
2023-03-27T00:36:09.715Z,80.69
2023-03-27T00:38:36.304Z,81.12
2023-03-27T00:41:04.238Z,81.00
2023-03-27T00:43:35.605Z,80.99
2023-03-27T00:46:14.031Z,80.79
2023-03-27T00:48:41.347Z,81.04
2023-03-27T00:51:08.571Z,81.26
2023-03-27T00:53:36.717Z,81.47
2023-03-27T00:56:04.900Z,81.55
2023-03-27T00:58:51.362Z,81.47
2023-03-27T01:01:18.766Z,81.67
2023-03-27T01:03:46.622Z,81.77
2023-03-27T01:06:16.251Z,81.93
2023-03-27T01:08:44.589Z,81.69
2023-03-27T01:11:26.571Z,81.93
2023-03-27T01:14:03.167Z,82.13
2023-03-27T01:16:45.257Z,82.46
2023-03-27T01:19:28.498Z,82.33
2023-03-27T01:22:23.629Z,82.46
2023-03-27T01:25:41.645Z,82.55
2023-03-27T01:31:54.461Z,82.71
2023-03-27T01:34:27.983Z,82.80
2023-03-27T01:37:17.434Z,83.15
2023-03-27T01:39:56.408Z,83.12
2023-03-27T01:42:26.605Z,82.99
2023-03-27T01:44:59.089Z,82.97
2023-03-27T01:47:41.220Z,83.30
2023-03-27T01:50:38.423Z,83.31
2023-03-27T01:53:18.610Z,83.40
2023-03-27T01:55:48.623Z,83.38
2023-03-27T01:58:32.576Z,83.48
2023-03-27T02:01:00.838Z,83.51
2023-03-27T02:03:35.144Z,83.38
2023-03-27T02:06:10.911Z,83.34
2023-03-27T02:08:49.741Z,83.74
2023-03-27T02:11:21.979Z,83.62
2023-03-27T02:13:51.802Z,83.40
2023-03-27T02:16:24.903Z,83.35
2023-03-27T02:18:58.394Z,83.62
2023-03-27T02:21:25.840Z,83.35
2023-03-27T02:23:52.978Z,83.53
2023-03-27T02:26:19.652Z,83.61
2023-03-27T02:29:11.992Z,83.56
2023-03-27T02:32:07.353Z,83.78
2023-03-27T02:34:49.731Z,83.97
2023-03-27T02:37:39.199Z,84.21
2023-03-27T02:40:39.877Z,83.80
2023-03-27T02:44:05.309Z,84.14
2023-03-27T02:47:40.547Z,84.18
2023-03-27T02:50:11.505Z,84.07
2023-03-27T02:52:45.614Z,84.32
2023-03-27T02:55:16.108Z,84.35
2023-03-27T02:57:52.025Z,84.44
2023-03-27T03:00:29.628Z,84.29
2023-03-27T03:03:13.571Z,84.36
2023-03-27T03:05:40.687Z,84.44
2023-03-27T03:08:09.819Z,84.66
2023-03-27T03:10:43.640Z,84.64
2023-03-27T03:13:15.131Z,84.84
2023-03-27T03:15:45.472Z,84.93
2023-03-27T03:18:12.519Z,85.26
2023-03-27T03:20:39.374Z,85.12
2023-03-27T03:23:06.362Z,85.12
2023-03-27T03:25:33.969Z,85.51
2023-03-27T03:28:00.921Z,85.53
2023-03-27T03:30:29.707Z,85.33
2023-03-27T03:33:19.332Z,85.41
2023-03-27T03:35:48.140Z,85.51
2023-03-27T03:38:24.810Z,85.33
2023-03-27T03:40:53.621Z,85.21
2023-03-27T03:43:22.024Z,85.09
2023-03-27T03:45:54.048Z,85.21
2023-03-27T03:48:22.099Z,85.13
2023-03-27T03:50:51.146Z,85.22
2023-03-27T03:53:19.440Z,84.87
2023-03-27T03:55:49.381Z,84.74
2023-03-27T03:58:16.547Z,84.59
2023-03-27T04:00:48.014Z,84.60
2023-03-27T04:03:38.681Z,84.56
2023-03-27T04:06:06.790Z,84.35
2023-03-27T04:08:34.031Z,84.22
2023-03-27T04:11:08.840Z,84.42
2023-03-27T04:14:02.198Z,84.24
2023-03-27T04:16:39.436Z,83.61
2023-03-27T04:19:17.609Z,83.50
2023-03-27T04:21:46.754Z,83.37
2023-03-27T04:24:17.541Z,83.52
2023-03-27T04:26:47.380Z,83.14
2023-03-27T04:29:31.318Z,82.92
2023-03-27T04:31:58.578Z,82.79
2023-03-27T04:34:40.683Z,82.64
2023-03-27T04:37:28.327Z,82.47
2023-03-27T04:40:04.518Z,82.25
2023-03-27T04:42:32.578Z,81.92
2023-03-27T04:45:00.913Z,81.75
2023-03-27T04:47:28.899Z,81.62
2023-03-27T04:49:59.511Z,81.38
2023-03-27T04:52:29.032Z,81.08
2023-03-27T04:55:05.018Z,80.75
2023-03-27T04:57:32.525Z,80.49
2023-03-27T05:00:01.345Z,80.26
2023-03-27T05:02:37.432Z,80.40
2023-03-27T05:05:13.606Z,80.16
2023-03-27T05:07:46.066Z,79.83
2023-03-27T05:10:17.220Z,79.96
2023-03-27T05:12:50.739Z,79.59
2023-03-27T05:15:18.221Z,79.17
2023-03-27T05:17:54.261Z,78.57
2023-03-27T05:20:26.572Z,78.50
2023-03-27T05:22:54.713Z,78.18
2023-03-27T05:25:25.796Z,77.79
2023-03-27T05:27:55.159Z,77.92
2023-03-27T05:30:24.309Z,77.77
2023-03-27T05:33:00.797Z,77.20
2023-03-27T05:35:29.110Z,77.06
2023-03-27T05:37:58.481Z,77.32
2023-03-27T05:40:39.948Z,77.03
2023-03-27T05:43:07.700Z,76.66
2023-03-27T05:45:35.608Z,76.14
2023-03-27T05:48:03.658Z,75.83
2023-03-27T05:50:34.726Z,75.49
2023-03-27T05:53:09.290Z,74.82
2023-03-27T05:55:38.161Z,74.40
2023-03-27T05:58:12.803Z,74.32
2023-03-27T06:00:43.759Z,73.92
2023-03-27T06:03:14.545Z,73.59
2023-03-27T06:05:53.708Z,73.48
2023-03-27T06:08:22.615Z,73.50
2023-03-27T06:10:49.954Z,73.43
2023-03-27T06:13:32.323Z,73.88
2023-03-27T06:16:07.896Z,73.54
2023-03-27T06:18:51.045Z,73.34
2023-03-27T06:21:25.154Z,73.18
2023-03-27T06:23:58.357Z,72.71
2023-03-27T06:26:27.838Z,72.51
2023-03-27T06:28:55.983Z,71.87
2023-03-27T06:31:23.819Z,71.43
2023-03-27T06:34:05.201Z,71.18
2023-03-27T06:36:41.087Z,71.77
2023-03-27T06:39:17.236Z,71.48
2023-03-27T06:41:50.549Z,71.23
2023-03-27T06:44:28.516Z,71.20
2023-03-27T06:47:04.908Z,70.03
2023-03-27T06:49:41.633Z,69.41
2023-03-27T06:52:14.557Z,69.59
2023-03-27T06:54:45.736Z,69.64
2023-03-27T06:57:14.735Z,69.45
2023-03-27T07:00:10.146Z,69.57
2023-03-27T07:03:02.820Z,68.99
2023-03-27T07:06:00.751Z,68.01
2023-03-27T07:08:33.931Z,67.25
2023-03-27T07:13:33.667Z,65.89
2023-03-27T07:16:01.788Z,66.13
2023-03-27T07:18:34.683Z,65.67
2023-03-27T07:21:01.811Z,65.07
2023-03-27T07:23:29.586Z,65.08
2023-03-27T07:26:02.288Z,64.55
2023-03-27T07:28:51.255Z,64.44
2023-03-27T07:31:33.092Z,64.57
2023-03-27T07:34:07.985Z,63.88
2023-03-27T07:36:56.829Z,63.33
2023-03-27T07:39:25.235Z,63.12
2023-03-27T07:41:52.314Z,61.91
2023-03-27T07:44:47.293Z,62.16
2023-03-27T07:47:14.276Z,62.59
2023-03-27T07:49:41.471Z,62.73
2023-03-27T07:52:14.138Z,62.11
2023-03-27T07:54:48.858Z,61.93
2023-03-27T07:57:17.613Z,61.18
2023-03-27T07:59:52.097Z,60.87
2023-03-27T08:02:25.633Z,61.33
2023-03-27T08:04:54.559Z,61.31
2023-03-27T08:07:24.116Z,61.27
2023-03-27T08:09:56.841Z,61.62
2023-03-27T08:12:23.651Z,62.12
2023-03-27T08:14:57.470Z,62.28
2023-03-27T08:17:29.926Z,61.92
2023-03-27T08:19:58.112Z,61.42
2023-03-27T08:22:24.992Z,60.94
2023-03-27T08:25:10.400Z,61.37
2023-03-27T08:27:39.672Z,60.24
2023-03-27T08:30:07.331Z,60.65
2023-03-27T08:32:38.857Z,61.13
2023-03-27T08:35:14.272Z,60.09
2023-03-27T08:37:43.493Z,59.14
2023-03-27T08:40:51.527Z,58.82
2023-03-27T08:43:42.151Z,58.87
2023-03-27T08:46:29.870Z,58.07
2023-03-27T08:49:19.842Z,57.87
2023-03-27T08:52:25.306Z,57.14
2023-03-27T08:55:49.283Z,57.63
2023-03-27T08:58:29.683Z,57.03
2023-03-27T09:01:25.837Z,56.43
2023-03-27T09:04:29.663Z,55.20
2023-03-27T09:07:15.916Z,56.55
2023-03-27T09:10:20.772Z,56.19
2023-03-27T09:13:14.171Z,54.65
2023-03-27T09:15:52.620Z,54.01
2023-03-27T09:18:54.590Z,53.22
2023-03-27T09:21:31.097Z,51.82
2023-03-27T09:24:07.565Z,50.56
2023-03-27T09:27:06.276Z,48.61
2023-03-27T09:30:19.658Z,47.81
2023-03-27T09:32:58.020Z,48.92
2023-03-27T09:35:25.690Z,45.75
2023-03-27T09:38:03.286Z,45.55
2023-03-27T09:40:35.854Z,44.27
2023-03-27T09:43:12.027Z,43.61
2023-03-27T09:45:42.139Z,42.90
2023-03-27T09:48:45.020Z,43.19
2023-03-27T09:51:41.896Z,42.39
2023-03-27T09:54:18.788Z,41.79
2023-03-27T09:56:49.150Z,41.90
2023-03-27T09:59:23.518Z,42.22
2023-03-27T10:01:54.937Z,42.06
2023-03-27T10:04:24.623Z,42.47
2023-03-27T10:07:07.689Z,41.39
2023-03-27T10:10:11.450Z,40.73
2023-03-27T10:13:16.248Z,39.02
2023-03-27T10:15:46.609Z,39.18
2023-03-27T10:18:28.898Z,39.33
2023-03-27T10:21:09.306Z,39.30
2023-03-27T10:24:06.642Z,39.47
2023-03-27T10:26:59.396Z,40.43
2023-03-27T10:29:30.281Z,39.58
2023-03-27T10:31:59.082Z,38.06
2023-03-27T10:34:42.952Z,38.54
2023-03-27T10:37:27.558Z,39.58
2023-03-27T10:40:08.707Z,40.43
2023-03-27T10:42:39.770Z,41.25
2023-03-27T10:45:19.758Z,42.07
2023-03-27T10:47:49.070Z,43.01
2023-03-27T10:50:21.870Z,43.74
2023-03-27T10:53:06.027Z,44.09
2023-03-27T10:56:05.296Z,44.77
2023-03-27T10:58:35.082Z,44.95
2023-03-27T11:01:17.604Z,45.01
2023-03-27T11:04:16.497Z,45.02
2023-03-27T11:06:48.763Z,44.57
2023-03-27T11:09:23.440Z,43.96
2023-03-27T11:12:07.274Z,43.67
2023-03-27T11:14:53.734Z,43.19
2023-03-27T11:17:29.081Z,43.38
2023-03-27T11:20:21.413Z,44.40
2023-03-27T11:23:31.723Z,44.83
2023-03-27T11:26:15.157Z,44.35
2023-03-27T11:28:46.014Z,43.75
2023-03-27T11:31:37.748Z,43.02
2023-03-27T11:34:15.567Z,41.07
2023-03-27T11:37:04.317Z,40.69
2023-03-27T11:39:47.789Z,40.53
2023-03-27T11:42:20.008Z,39.52
2023-03-27T11:44:48.215Z,39.33
2023-03-27T11:48:27.604Z,39.59
2023-03-27T11:51:12.075Z,40.17
2023-03-27T11:54:24.832Z,40.74
2023-03-27T11:57:01.501Z,41.31
2023-03-27T12:00:10.957Z,42.61
2023-03-27T12:03:02.981Z,43.06
2023-03-27T12:06:02.770Z,44.05
2023-03-27T12:08:56.966Z,44.55
2023-03-27T12:11:24.276Z,44.68
2023-03-27T12:14:02.101Z,44.90
2023-03-27T12:16:55.736Z,45.43
2023-03-27T12:20:04.872Z,45.67
2023-03-27T12:22:54.106Z,45.85
2023-03-27T12:26:23.164Z,45.81
2023-03-27T12:29:02.937Z,45.41
2023-03-27T12:31:58.843Z,44.61
2023-03-27T12:34:29.174Z,44.57
2023-03-27T12:36:56.210Z,44.38
2023-03-27T12:39:26.546Z,43.55
2023-03-27T12:41:54.313Z,43.02
2023-03-27T12:44:30.230Z,42.71
2023-03-27T12:47:08.471Z,42.59
2023-03-27T12:49:47.927Z,42.86
2023-03-27T12:52:20.857Z,43.10
2023-03-27T12:55:05.190Z,42.64
2023-03-27T12:57:56.417Z,42.50
2023-03-27T13:00:51.410Z,42.74
2023-03-27T13:03:48.746Z,42.58
2023-03-27T13:06:34.718Z,43.08
2023-03-27T13:09:23.336Z,43.32
2023-03-27T13:12:28.618Z,43.26
2023-03-27T13:15:27.813Z,43.69
2023-03-27T13:18:04.237Z,43.85
2023-03-27T13:21:02.970Z,43.89
2023-03-27T13:23:51.880Z,43.90
2023-03-27T13:26:49.469Z,43.91
2023-03-27T13:29:19.464Z,43.45
2023-03-27T13:31:49.032Z,42.61
2023-03-27T13:34:36.005Z,43.08
2023-03-27T13:37:13.491Z,43.24
2023-03-27T13:40:16.183Z,42.75
2023-03-27T13:42:43.925Z,43.01
2023-03-27T13:45:25.267Z,42.90
2023-03-27T13:49:48.574Z,43.07
2023-03-27T13:52:39.673Z,42.75
2023-03-27T13:55:19.074Z,42.81
2023-03-27T13:58:39.771Z,42.85
2023-03-27T14:01:25.365Z,42.97
2023-03-27T14:03:57.292Z,43.18
2023-03-27T14:07:07.282Z,43.77
2023-03-27T14:09:46.795Z,43.99
2023-03-27T14:12:40.942Z,44.06
2023-03-27T14:15:45.172Z,44.12
2023-03-27T14:18:41.246Z,44.18
2023-03-27T14:21:24.556Z,44.38
2023-03-27T14:24:05.147Z,44.29
2023-03-27T14:26:41.786Z,44.41
2023-03-27T14:29:14.822Z,44.61
2023-03-27T14:31:45.478Z,44.55
2023-03-27T14:34:24.054Z,44.40
2023-03-27T14:36:58.675Z,44.70
2023-03-27T14:39:37.325Z,44.76
2023-03-27T14:42:14.845Z,44.73
2023-03-27T14:44:44.951Z,44.92
2023-03-27T14:47:14.677Z,45.00
2023-03-27T14:49:44.899Z,44.98
2023-03-27T14:52:21.410Z,45.19
2023-03-27T14:55:07.188Z,45.31
2023-03-27T14:57:38.180Z,45.26
2023-03-27T15:00:07.382Z,45.39
2023-03-27T15:02:41.520Z,45.37
2023-03-27T15:05:14.581Z,45.42
2023-03-27T15:07:48.741Z,45.46
2023-03-27T15:10:52.503Z,45.76
2023-03-27T15:13:36.181Z,45.88
2023-03-27T15:16:05.989Z,46.18
2023-03-27T15:18:37.329Z,46.29
2023-03-27T15:21:07.387Z,46.68
2023-03-27T15:23:37.961Z,46.92
2023-03-27T15:26:17.638Z,47.29
2023-03-27T15:29:14.041Z,47.87
2023-03-27T15:31:42.813Z,48.79
2023-03-27T15:34:23.444Z,48.85
2023-03-27T15:36:57.549Z,49.06
2023-03-27T15:39:26.050Z,49.40
2023-03-27T15:41:53.285Z,49.54
2023-03-27T15:44:22.276Z,49.68
2023-03-27T15:46:57.264Z,49.79
2023-03-27T15:49:34.263Z,50.00
2023-03-27T15:52:30.857Z,49.92
2023-03-27T15:54:58.070Z,49.98
2023-03-27T15:57:26.037Z,50.07
2023-03-27T16:00:01.036Z,50.18
2023-03-27T16:02:28.805Z,50.32
2023-03-27T16:04:58.022Z,50.53
2023-03-27T16:07:30.948Z,50.46
2023-03-27T16:10:06.205Z,50.50
2023-03-27T16:12:39.520Z,50.49
2023-03-27T16:15:27.119Z,50.60
2023-03-27T16:17:55.082Z,50.67
2023-03-27T16:20:24.865Z,50.57
2023-03-27T16:22:52.122Z,50.50
2023-03-27T16:25:19.982Z,50.63
2023-03-27T16:27:50.519Z,50.68
2023-03-27T16:30:35.368Z,50.59
2023-03-27T16:33:02.874Z,50.59
2023-03-27T16:35:31.320Z,50.67
2023-03-27T16:37:58.238Z,50.84
2023-03-27T16:40:25.554Z,51.61
2023-03-27T16:42:52.116Z,51.94
2023-03-27T16:45:21.729Z,51.80
2023-03-27T16:47:52.331Z,52.02
2023-03-27T16:50:21.970Z,52.01
2023-03-27T16:52:49.143Z,53.04
2023-03-27T16:55:16.655Z,53.64
2023-03-27T16:57:48.043Z,53.95
2023-03-27T17:00:16.621Z,53.88
2023-03-27T17:02:46.497Z,53.79
2023-03-27T17:05:13.609Z,54.00
2023-03-27T17:07:45.876Z,53.80
2023-03-27T17:10:17.764Z,53.67
2023-03-27T17:12:44.995Z,53.56
2023-03-27T17:15:12.148Z,53.11
2023-03-27T17:17:39.827Z,52.79
2023-03-27T17:20:07.901Z,52.43
2023-03-27T17:22:35.634Z,52.75
2023-03-27T17:25:05.066Z,52.88
2023-03-27T17:27:32.599Z,53.02
2023-03-27T17:29:59.483Z,52.96
2023-03-27T17:32:27.038Z,52.98
2023-03-27T17:34:54.581Z,53.12
2023-03-27T17:37:21.573Z,53.09
2023-03-27T17:39:48.680Z,53.09
2023-03-27T17:42:15.436Z,53.11
2023-03-27T17:44:47.098Z,53.15
2023-03-27T17:47:13.823Z,53.37
2023-03-27T17:49:40.540Z,53.89
2023-03-27T17:52:10.646Z,53.98
2023-03-27T17:54:41.762Z,54.19
2023-03-27T17:57:08.677Z,54.11
2023-03-27T17:59:35.854Z,53.56
2023-03-27T18:02:13.934Z,53.50
2023-03-27T18:04:41.162Z,53.70
2023-03-27T18:07:07.941Z,53.68
2023-03-27T18:09:35.280Z,53.60
2023-03-27T18:12:02.193Z,53.65
2023-03-27T18:14:29.301Z,53.76
2023-03-27T18:16:56.134Z,53.69
2023-03-27T18:19:24.625Z,53.82
2023-03-27T18:21:51.289Z,53.98
2023-03-27T18:24:18.944Z,54.19
2023-03-27T18:26:46.865Z,54.27
2023-03-27T18:29:21.579Z,54.40
2023-03-27T18:31:48.579Z,54.48
2023-03-27T18:34:15.578Z,54.44
2023-03-27T18:36:51.284Z,54.38
2023-03-27T18:39:18.490Z,54.42
2023-03-27T18:41:45.244Z,54.35
2023-03-27T18:44:15.774Z,54.32
2023-03-27T18:46:44.597Z,54.31
2023-03-27T18:49:23.719Z,54.25
2023-03-27T18:51:55.440Z,54.19
2023-03-27T18:54:22.827Z,53.96
2023-03-27T18:56:51.570Z,54.07
2023-03-27T18:59:18.735Z,53.97
2023-03-27T19:01:45.431Z,53.94
2023-03-27T19:04:16.457Z,53.70
2023-03-27T19:06:48.154Z,53.89
2023-03-27T19:09:14.945Z,54.48
2023-03-27T19:11:44.076Z,56.94
2023-03-27T19:14:30.642Z,57.47
2023-03-27T19:17:16.286Z,58.21
2023-03-27T19:20:02.675Z,58.73
2023-03-27T19:22:55.746Z,58.28
2023-03-27T19:25:29.152Z,58.11
2023-03-27T19:27:56.456Z,58.20
2023-03-27T19:30:23.636Z,58.30
2023-03-27T19:32:51.892Z,58.37
2023-03-27T19:35:20.085Z,58.71
2023-03-27T19:37:48.133Z,58.69
2023-03-27T19:40:15.238Z,59.09
2023-03-27T19:42:45.541Z,58.90
2023-03-27T19:45:12.513Z,59.18
2023-03-27T19:47:39.336Z,58.98
2023-03-27T19:50:07.923Z,59.53
2023-03-27T19:53:05.338Z,59.47
2023-03-27T19:55:36.251Z,59.39
2023-03-27T19:58:03.241Z,59.65
2023-03-27T20:00:34.750Z,59.69
2023-03-27T20:03:04.800Z,59.71
2023-03-27T20:05:31.701Z,59.54
2023-03-27T20:08:01.059Z,59.18
2023-03-27T20:10:29.737Z,59.19
2023-03-27T20:12:57.545Z,59.01
2023-03-27T20:15:30.328Z,59.00
2023-03-27T20:17:58.769Z,58.76
2023-03-27T20:20:26.641Z,58.61
2023-03-27T20:23:00.962Z,58.56
2023-03-27T20:25:32.709Z,58.24
2023-03-27T20:28:00.442Z,58.13
2023-03-27T20:30:27.976Z,57.77
2023-03-27T20:32:55.543Z,57.66
2023-03-27T20:35:24.986Z,57.38
2023-03-27T20:37:56.748Z,57.27
2023-03-27T20:40:25.326Z,57.15
2023-03-27T20:43:02.398Z,57.00
2023-03-27T20:45:30.189Z,57.34
2023-03-27T20:48:03.168Z,57.32
2023-03-27T20:50:31.065Z,57.93
2023-03-27T20:52:59.221Z,57.86
2023-03-27T20:55:33.633Z,58.15
2023-03-27T20:58:05.791Z,58.26
2023-03-27T21:00:32.415Z,58.41
2023-03-27T21:03:00.925Z,58.83
2023-03-27T21:05:29.738Z,58.96
2023-03-27T21:07:56.380Z,59.12
2023-03-27T21:10:24.307Z,59.27
2023-03-27T21:12:53.562Z,59.32
2023-03-27T21:15:24.220Z,59.58
2023-03-27T21:17:52.012Z,59.43
2023-03-27T21:20:18.685Z,59.66
2023-03-27T21:22:53.246Z,59.76
2023-03-27T21:25:20.835Z,60.15
2023-03-27T21:27:50.608Z,60.72
2023-03-27T21:30:18.571Z,60.91
2023-03-27T21:32:48.407Z,60.92
2023-03-27T21:35:15.731Z,60.81
2023-03-27T21:37:42.869Z,60.95
2023-03-27T21:40:09.870Z,60.99
2023-03-27T21:42:37.254Z,60.93
2023-03-27T21:45:04.665Z,60.79
2023-03-27T21:47:44.635Z,61.53
2023-03-27T21:50:14.787Z,61.76
2023-03-27T21:52:41.531Z,61.80
2023-03-27T21:55:08.927Z,61.89
2023-03-27T21:57:36.074Z,61.89
2023-03-27T22:00:05.793Z,61.72
2023-03-27T22:02:41.379Z,61.65
2023-03-27T22:05:08.414Z,61.90
2023-03-27T22:07:35.392Z,61.75
2023-03-27T22:10:05.692Z,62.20
2023-03-27T22:12:35.237Z,62.27
2023-03-27T22:15:06.333Z,62.21
2023-03-27T22:17:37.064Z,62.27
2023-03-27T22:20:05.129Z,61.84
2023-03-27T22:22:34.225Z,62.24
2023-03-27T22:25:01.962Z,61.96
2023-03-27T22:27:29.581Z,61.86
2023-03-27T22:29:58.018Z,62.06
2023-03-27T22:32:24.956Z,62.80
2023-03-27T22:34:51.855Z,62.88
2023-03-27T22:37:20.210Z,63.10
2023-03-27T22:39:46.814Z,62.99
2023-03-27T22:42:13.373Z,63.46
2023-03-27T22:44:39.982Z,64.15
2023-03-27T22:47:06.484Z,64.13
2023-03-27T22:49:35.550Z,64.12
2023-03-27T22:52:03.671Z,64.35
2023-03-27T22:54:33.497Z,63.79
2023-03-27T22:57:01.058Z,63.56
2023-03-27T22:59:29.684Z,63.68
2023-03-27T23:01:56.552Z,63.26
2023-03-27T23:04:23.478Z,63.35
2023-03-27T23:06:50.166Z,63.25
2023-03-27T23:09:16.897Z,63.12
2023-03-27T23:11:43.465Z,63.37
2023-03-27T23:14:10.766Z,63.18
2023-03-27T23:16:39.389Z,63.19
2023-03-27T23:19:08.844Z,63.24
2023-03-27T23:21:36.084Z,63.25
2023-03-27T23:24:04.610Z,63.40
2023-03-27T23:26:33.163Z,63.56
2023-03-27T23:28:59.749Z,63.55
2023-03-27T23:31:26.723Z,63.60
2023-03-27T23:33:54.252Z,63.56
2023-03-27T23:36:22.626Z,63.93
2023-03-27T23:38:51.286Z,63.73
2023-03-27T23:41:18.174Z,63.78
2023-03-27T23:43:44.906Z,64.23
2023-03-27T23:46:12.737Z,64.20
2023-03-27T23:48:42.332Z,64.34
2023-03-27T23:51:09.121Z,64.64
2023-03-27T23:53:37.954Z,64.56
2023-03-27T23:56:04.943Z,64.76
2023-03-27T23:58:32.013Z,65.06
